»·PEaware :: HOG11 KLSV-KLSV

HOG11 :: KLSV-KLSV

FLIGHT INFORMATION

Flight Status: Arrived
Operator: Unknown
More flights by this operator :: More flights under this callsign
Pilot: Brenden M. (4822)
Aircraft: FAIRCHILD A-10 THUNDERBOLT 2
(A10)
More flights by this aircraft type
Origin: KLSV Nellis AFB
United States
Destination: KLSV Nellis AFB
United States
More flights between these airports :: More routes between these airports
Route: +DREAM4 DREAM
File this flight plan on PilotEdge
Remarks:
Altitude:
(Current/Filed)
12,000ft
Speed:
(Current/Filed)
300kts
Departed: 03-Feb-17 03:33 PM
Arrived: 03-Feb-17 04:22 PM
Distance/Time
Traveled:
1nm/0:49
Distance/Time
To Go:
Arrived

Flight Plot

Page will automatically refresh every two minutes.

Flight plan parsing failed; only flown route is shown


Map Options




Map Legend


Flown Route
Filed Route
Departure Airport
Arrival Airport
Navaid (VOR, NDB)
Fix

Horizontal Profiles

Position Reports

Time Latitude Longitude Heading Altitude Ground
Speed
03-Feb-17 14:50 36.229409 -115.023906 82 1850ft 0kts
03-Feb-17 14:51 36.229409 -115.023906 82 1850ft 0kts
03-Feb-17 14:52 36.229409 -115.023906 82 1850ft 0kts
03-Feb-17 14:53 36.229409 -115.023906 82 1850ft 0kts
03-Feb-17 14:54 36.229409 -115.023906 82 1850ft 0kts
03-Feb-17 14:55 36.229409 -115.023906 82 1850ft 0kts
03-Feb-17 14:56 36.229409 -115.023906 82 1850ft 0kts
03-Feb-17 14:57 36.229409 -115.023906 82 1850ft 0kts
03-Feb-17 14:58 36.229409 -115.023906 82 1850ft 0kts
03-Feb-17 14:59 36.229409 -115.023906 82 1850ft 0kts
03-Feb-17 15:00 36.229409 -115.023906 82 1850ft 0kts
03-Feb-17 15:01 36.229409 -115.023906 82 1850ft 0kts
03-Feb-17 15:02 36.229409 -115.023906 82 1850ft 0kts
03-Feb-17 15:03 36.229409 -115.023906 82 1850ft 0kts
03-Feb-17 15:04 36.229409 -115.023906 82 1850ft 0kts
03-Feb-17 15:05 36.229409 -115.023906 82 1850ft 0kts
03-Feb-17 15:06 36.229409 -115.023906 82 1850ft 0kts
03-Feb-17 15:07 36.229409 -115.023906 82 1850ft 0kts
03-Feb-17 15:08 36.229409 -115.023906 82 1850ft 0kts
03-Feb-17 15:09 36.229409 -115.023906 82 1850ft 0kts
03-Feb-17 15:10 36.229409 -115.023906 82 1850ft 0kts
03-Feb-17 15:11 36.229409 -115.023906 82 1850ft 0kts
03-Feb-17 15:12 36.229409 -115.023906 82 1850ft 0kts
03-Feb-17 15:13 36.229409 -115.023906 82 1850ft 0kts
03-Feb-17 15:14 36.229409 -115.023906 82 1850ft 0kts
03-Feb-17 15:15 36.229409 -115.023906 82 1850ft 0kts
03-Feb-17 15:16 36.229409 -115.023906 82 1850ft 0kts
03-Feb-17 15:17 36.229409 -115.023906 82 1850ft 0kts
03-Feb-17 15:18 36.229409 -115.023906 82 1850ft 0kts
03-Feb-17 15:19 36.229409 -115.023906 82 1850ft 0kts
03-Feb-17 15:20 36.229409 -115.023906 82 1850ft 0kts
03-Feb-17 15:21 36.229409 -115.023906 82 1850ft 0kts
03-Feb-17 15:22 36.229409 -115.023906 82 1850ft 0kts
03-Feb-17 15:23 36.229409 -115.023906 82 1850ft 0kts
03-Feb-17 15:24 36.229409 -115.023906 82 1850ft 0kts
03-Feb-17 15:25 36.229409 -115.023906 82 1850ft 0kts
03-Feb-17 15:26 36.230095 -115.025563 267 1850ft 10kts
03-Feb-17 15:27 36.230739 -115.030621 270 1850ft 19kts
03-Feb-17 15:28 36.227215 -115.035469 219 1850ft 19kts
03-Feb-17 15:29 36.222859 -115.040189 220 1849ft 21kts
03-Feb-17 15:30 36.224396 -115.043303 326 1848ft 0kts
03-Feb-17 15:31 36.224396 -115.043303 326 1848ft 0kts
03-Feb-17 15:32 36.224746 -115.043595 322 1848ft 16kts
03-Feb-17 15:33 36.241295 -115.026481 39 2043ft 180kts
03-Feb-17 15:34 36.283115 -114.981785 39 3392ft 196kts
03-Feb-17 15:35 36.325619 -114.937420 37 4849ft 197kts
03-Feb-17 15:36 36.371840 -114.897029 12 6115ft 202kts
03-Feb-17 15:37 36.428201 -114.899281 353 7567ft 198kts
03-Feb-17 15:38 36.483951 -114.904553 354 8989ft 196kts
03-Feb-17 15:39 36.539284 -114.908364 354 10401ft 193kts
03-Feb-17 15:40 36.594342 -114.910761 357 11719ft 193kts
03-Feb-17 15:41 36.651077 -114.910660 357 12493ft 223kts
03-Feb-17 15:42 36.716390 -114.927332 330 12658ft 251kts
03-Feb-17 15:43 36.778360 -114.973791 325 12804ft 265kts
03-Feb-17 15:44 36.841473 -115.024580 325 12803ft 271kts
03-Feb-17 15:45 36.905338 -115.076126 325 12803ft 272kts
03-Feb-17 15:46 36.969210 -115.127779 325 12803ft 273kts
03-Feb-17 15:47 37.033157 -115.179591 325 12803ft 273kts
03-Feb-17 15:48 37.097267 -115.231642 325 12803ft 273kts
03-Feb-17 15:49 37.161186 -115.283530 325 12803ft 273kts
03-Feb-17 15:50 37.186423 -115.358682 240 13320ft 266kts
03-Feb-17 15:51 37.118954 -115.366623 152 13299ft 265kts
03-Feb-17 15:52 37.062766 -115.308547 129 13772ft 268kts
03-Feb-17 15:53 37.036449 -115.216118 69 12443ft 271kts
03-Feb-17 15:54 37.052744 -115.213620 195 7415ft 342kts
03-Feb-17 15:55 37.051914 -115.152784 0 8885ft 251kts
03-Feb-17 15:56 37.109875 -115.199783 291 9086ft 269kts
03-Feb-17 15:57 37.057359 -115.198646 95 7244ft 304kts
03-Feb-17 15:58 37.089946 -115.113229 13 9311ft 283kts
03-Feb-17 15:59 37.155691 -115.133509 280 11739ft 276kts
03-Feb-17 16:00 37.101679 -115.204064 189 11379ft 329kts
03-Feb-17 16:01 37.000313 -115.217324 184 4398ft 398kts
03-Feb-17 16:02 36.975649 -115.309161 285 7706ft 276kts
03-Feb-17 16:03 37.033071 -115.348212 22 10164ft 288kts
03-Feb-17 16:04 37.074803 -115.264788 89 9881ft 304kts
03-Feb-17 16:05 37.034649 -115.176894 141 9964ft 298kts
03-Feb-17 16:06 36.965601 -115.118518 145 9995ft 300kts
03-Feb-17 16:07 36.895438 -115.060830 150 9921ft 303kts
03-Feb-17 16:08 36.814919 -115.036726 171 10180ft 299kts
03-Feb-17 16:09 36.731689 -115.023247 172 10190ft 301kts
03-Feb-17 16:10 36.648535 -115.009874 172 10190ft 301kts
03-Feb-17 16:11 36.564974 -114.996472 172 10190ft 301kts
03-Feb-17 16:12 36.481471 -114.983091 172 10190ft 302kts
03-Feb-17 16:13 36.457272 -114.911301 47 10500ft 291kts
03-Feb-17 16:14 36.532791 -114.882072 338 10183ft 298kts
03-Feb-17 16:15 36.524637 -114.945617 179 8694ft 290kts
03-Feb-17 16:16 36.445047 -114.934703 169 6346ft 273kts
03-Feb-17 16:17 36.372607 -114.921235 191 5197ft 260kts
03-Feb-17 16:18 36.305895 -114.961719 214 4436ft 268kts
03-Feb-17 16:19 36.249457 -115.021731 220 3545ft 268kts
03-Feb-17 16:20 36.266726 -115.023852 101 2481ft 174kts
03-Feb-17 16:21 36.235960 -115.036694 219 1857ft 89kts
03-Feb-17 16:22 36.227736 -115.047912 352 1851ft 13kts
03-Feb-17 16:23 36.228039 -115.047715 39 1852ft 11kts
03-Feb-17 16:24 36.231379 -115.046392 281 1854ft 4kts
03-Feb-17 16:25 36.231172 -115.046689 219 1855ft 0kts
03-Feb-17 16:26 36.231172 -115.046688 219 1855ft 0kts

Navigation Log

Ident Type
Flight plan parsing failed, navigation log unavailable